Terminal Aerodrome Forecast
Issued by NWS Salt Lake City, UT

Home | Current Version | Previous Version | Text Only | Print | Product List | Glossary On
Versions: 1 2 3 4 5 6 7 8 9 10 11 12 13 14 15
000
FTUS45 KSLC 310543
TAFCDC
TAF
KCDC 310543Z 3106/0106 VRB06KT P6SM SCT080
     FM311700 02009KT P6SM SKC
     FM311900 03010G18KT P6SM SKC
     FM010300 VRB05KT P6SM SKC=

USA.gov is the U.S. government's official web portal to all federal, state and local government web resources and services.